2019-10-20   13:48:42
Välj tävling:

Välj språk:
Swedish English Denmark Finland

Program för Bergen Swim Festival, AdO Arena

Nedan visas startlistor och heatlistor uppdelade per tävlingspass.

Tävlingspass

Document
Entry List
Bergen Swim Festival 2019
Organizer:
Place: AdO Arena Bergensklubbene
Pool: 50m Competition Date: Apr 5, 2019 to Apr 7, 2019
26 400m Freestyle Men
Sponsor: OLKA Sportsreiser
WR 3:40.07 Paul Biedermann 1986 Germany GER Rome ITA 26.07.2009
BSF 3:48.05 Victor Johansson 1998 Swe Bergen 15.04.2018
NOR 3:46.37 Henrik Christiansen 1996 Skjetten NOR Stockholm SWE 30.03.2016
# ID Name Team Born License Pool Entry
time
Status
1 792 Henrik Christiansen Lambertseter SK 1996 25m 3:36.64
2 821 Florian Wellbrock Deutcher Schwimm-Verband 1997 25m 3:41.57
3 622 Erik Årsland Gidskehaug Stavanger Svømmeklubb 1997 25m 3:44.39
4 460 Tomoe Zenimoto Hvas Bærumsvømmerne 2000 25m 3:45.54
5 410 Pit Brandenburger Team Luxembourg 1995 25m 3:46.97
6 422 Alexandre Marcourt FLANDERS SWIMMING
FEDERATION
1999 25m 3:48.59
7 142 Paul Hentschel SSG Leipzig e.V. 1997 239748 25m 3:48.65
8 423 Thomas Thijs FLANDERS SWIMMING
FEDERATION
1997 25m 3:49.06
9 846 Christian Keber Deutcher Schwimm-Verband 1998 25m 3:49.44 LAT
10 426 Lorenz Weiremans FLANDERS SWIMMING
FEDERATION
1996 25m 3:49.52
11 145 Tim Wilsdorf SSG Leipzig e.V. 1999 242438 25m 3:53.81
12 153 Louis Dramm Dresdner Delphine 2002 282220 25m 3:53.84
13 356 Sondre Saltnes Urdal BS/Delfana 1999 25m 3:55.31
14 321 Mattis Grindalen Svendsen Kongstensvømmerne 2000 25m 3:55.46
15 633 Truls Wigdel Stavanger Svømmeklubb 1999 50m 3:55.75
16 790 Mats Andersen Lambertseter SK 2000 25m 3:55.86
17 404 Christer Melberg Haldens SK 2001 25m 3:56.29
18 415 Jacques Schmitz Team Luxembourg 2002 25m 3:58.92
19 49 Tobias Moen Olsen Vestkantsvømmerne 2002 M040502
TOB01
25m 3:59.12
20 346 Arild Kristiansen Degerstrøm BS/Delfana 2000 25m 4:00.25
21 758 Carl Göransson Väsby Simsällskap 2000 AQ8300 25m 4:00.71
22 561 Johan N. Dam Svimjisamband Foroya 2002 25m 4:03.42
23 84 Anders Valdar Poseidon 2000 25m 4:03.95
24 555 Andreas Håbesland Klausen Team Sør/KSA 2002 25m 4:04.28
25 837 Jaouad Syoud Cn Chalon-Sur-Saone 1999 25m 4:04.56
26 847 Jon Kantzenbach Deutcher Schwimm-Verband 2002 25m 4:05.74 LAT
27 744 Gabriel Henkel Stockholms
Kappsimningsklubb
2001 AS3301 25m 4:05.99
28 619 Olav Eklund Stavanger Svømmeklubb 2002 25m 4:07.52
29 67 Kasper  Envalds Vanders 2001 01A496 25m 4:07.63
30 597 Trym Vejlgaard Sørensen Glitre SK/BK 2001 25m 4:08.22
31 850 Adrian Eichler Deutcher Schwimm-Verband 2003 25m 4:08.78
32 105 Stian Munkejord Karmøy SK 2001 25m 4:09.80
33 713 Vetle Vikestad Løseth Aalesunds SLK 2004 25m 4:09.82
34 694 Isac Lieng Oslo Idrettslag Svømming 2002 25m 4:10.18
35 308 Emil Sander Danielsen Kongstensvømmerne 2002 25m 4:10.35
36 554 Birk Lee Johansen Team Sør/KSA 2002 25m 4:10.51
37 681 Magnus Reinholdt Belsvik Oslo Idrettslag Svømming 2002 25m 4:11.70
38 276 Kristian Volden NTNUI-Svømming 1998 25m 4:11.78
39 626 Stian Alexander Pettersen Stavanger Svømmeklubb 2003 25m 4:12.02
40 51 Andreas Ramsvik Vestkantsvømmerne 2003 M100303
AND02
25m 4:12.48
41 294 Daniel Farahani SK Speed 25m 4:15.35
1998
42 306 Markus Woxholt SK Speed 25m 4:15.68
1999
43 388 Emil Bjørnsen Bore Bryne SK 25m 4:16.29
2002
44 43 Kristian Øksnes Myntevik Vestkantsvømmerne 25m 4:17.36
2001 M180901
KRI03
45 703 Brage Ree Bakken Klepp SSK 2003 25m 4:18.21
46 508 Kristian Dimitri Swakhoven Asker SK 2003 25m 4:18.78
47 762 Ivar Simonsson Väsby Simsällskap 2002 AO9502 25m 4:19.49
48 252 Christopher Johnsen Skar BS-LK 2003 25m 4:20.62
49 79 Eirik Vinje Olsen Poseidon 2003 25m 4:22.75
50 534 Kasper Krohn-Dale Bergens Svømme Club 2002 25m 4:24.54
51 613 Sivert Solheim Verhage Førde IL Symjing 2002 25m 4:25.36
52 126 Jonas Oudalstøl Vågsbygd SLK 2004 25m 4:25.44
53 166 Jonas Fiskaa Barstad Trondhjems SLK 2000 25m 4:26.05
54 509 Joakim Tronstad Asker SK 2003 25m 4:26.12
55 162 Sebastian Amundsen Trondhjems SLK 2004 25m 4:27.17
56 280 Aleksey Koriachko Johansen Karasjok SK 2003 25m 4:27.20
57 651 Magnus Odland Haugesund SK 2002 25m 4:27.40
58 479 Karsten Hernæss Sandefjord SK 2004 25m 4:27.64
59 771 Axel Lewander Stockholmspolisens IF
Simfören
2004 AI7304 25m 4:29.22
60 455 Andreas Skår Bjørnstad Bærumsvømmerne 1997 25m 4:53.99 S7
61 831 Lucas Setekleiv Paturel Farsund SK 2004 25m 4:29.78 RES
62 86 Andreas Imislund Aamodt Poseidon 2003 25m 4:30.40 RES
63 654 Mads Samdal Hansen Haugesund SK 2004 25m 4:30.74 RES
64 761 Ludvig Ahlström Väsby Simsällskap 2002 AK8302 25m 4:34.48 RES
65 108 Ørjan Westre Karmøy SK 2003 25m 4:35.09 RES
66 191 Istvan Besenyi Ullensakersvømmerne 2004 25m 4:36.04 RES
67 332 Gabriel Steen Vestbyen Trondheim 2004 25m 4:38.41 RES
68 62 Nicolai Høvik Kristiansund SK 2005 25m 4:39.10 RES
69 322 Jørgen Enger Søstrand Kongstensvømmerne 2004 25m 4:40.69 RES
2019-04-05 07.12.54 Datahandling: WinGrodan 2.3 Licensed to: Bergens Svømme & Livredningsklub

LiveTiming iPhone Banner

LiveTiming iPhone Banner